Startpagina
METAR-TAF:

METAR-TAF

Vliegvelden :

Uden, Nederland

Vliegbasis Volkel

breedte: 51-39N, lengte: 005-42E, hoogte: 22 m

Actueel weer

Dit bericht is 24 minuten geleden gemaakt, om 18:55 UTC
Wind 3 kt uit het zuidzuidoosten
Temperatuur 23°C
Vochtigheid 41%
Druk 1015 hPa
Zicht 10 km of meer
Geheel bewolkt op 19000 ft

METAR: EHVK 221855Z AUTO 15003KT 9999 OVC190 23/09 Q1015 BLU

Tijdstip: 21:19 (19:19 UTC)

Verwachting

Dit bericht is 10 uur en het 59 minuten geleden gemaakt, om 08:20 UTC
Verwachting geldig van 22 om 09 UTC tot 22 om 21 UTC
Wind 4 kt uit het zuidoosten
Zicht 10 km of meer
geen wolken onder 1500 m en geen cumulonimbus
Kans 40% :
Tijdelijke
van 22 om 15 UTC tot 22 om 21 UTC
Wind 2 kt uit variabele richting

TAF: EHVK 220820Z 2209/2221 13004KT CAVOK PROB40 TEMPO 2215/2221 VRB02KT

Waarnemingen en weersverwachtingen van meer dan 4000 vliegvelden (METAR en TAF).

De beschikbare stations zijn de gele en rode punten op de kaart.

Ga met uw muis naar het station om de naam te zien.

Klik dan om waarnemingen en weersverwachtingen te zien.

kaart wijzigen: klik op de groene knoppen met een zwart kruis om in te zoomen, op de groene knop met een streepje om uit te zoomen of op de groene pijlen voor aangrenzende kaarten.


METAR-TAF: